createdAt,value
2019-03-17T00:00:43.115Z,965.4
2019-03-17T00:01:52.985Z,965.4
2019-03-17T00:02:58.367Z,965.5
2019-03-17T00:03:59.615Z,965.3
2019-03-17T00:05:01.143Z,965.4
2019-03-17T00:06:02.409Z,965.4
2019-03-17T00:07:04.847Z,965.4
2019-03-17T00:08:07.037Z,965.4
2019-03-17T00:09:08.311Z,965.3
2019-03-17T00:10:10.661Z,965.2
2019-03-17T00:11:11.966Z,965.3
2019-03-17T00:12:13.257Z,965.3
2019-03-17T00:13:17.585Z,965.3
2019-03-17T00:14:19.141Z,965.4
2019-03-17T00:15:20.421Z,965.2
2019-03-17T00:16:24.075Z,965.2
2019-03-17T00:17:25.995Z,965
2019-03-17T00:18:27.261Z,965.1
2019-03-17T00:19:28.519Z,965.2
2019-03-17T00:20:29.781Z,965.1
2019-03-17T00:21:31.043Z,965.2
2019-03-17T00:22:32.689Z,965.1
2019-03-17T00:23:33.973Z,965.2
2019-03-17T00:24:35.249Z,965.1
2019-03-17T00:25:36.516Z,965.2
2019-03-17T00:26:37.778Z,965.2
2019-03-17T00:27:40.353Z,965.2
2019-03-17T00:28:45.019Z,965
2019-03-17T00:29:46.292Z,965.1
2019-03-17T00:30:47.833Z,965
2019-03-17T00:31:51.615Z,965
2019-03-17T00:32:52.921Z,965
2019-03-17T00:33:55.703Z,965
2019-03-17T00:34:57.193Z,965.1
2019-03-17T00:35:58.454Z,965.1
2019-03-17T00:36:59.757Z,965.1
2019-03-17T00:38:01.343Z,965.1
2019-03-17T00:39:02.753Z,965
2019-03-17T00:40:04.017Z,965.1
2019-03-17T00:41:05.299Z,965
2019-03-17T00:42:06.555Z,965
2019-03-17T00:43:07.899Z,964.9
2019-03-17T00:44:09.527Z,965
2019-03-17T00:45:13.249Z,965.1
2019-03-17T00:46:14.563Z,965
2019-03-17T00:47:18.324Z,965
2019-03-17T00:48:19.625Z,965
2019-03-17T00:49:23.401Z,965
2019-03-17T00:50:24.651Z,964.9
2019-03-17T00:51:25.935Z,964.8
2019-03-17T00:52:29.312Z,964.8
2019-03-17T00:53:30.645Z,964.8
2019-03-17T00:54:32.061Z,964.8
2019-03-17T00:55:33.320Z,964.7
2019-03-17T00:56:34.571Z,964.8
2019-03-17T00:57:35.847Z,964.8
2019-03-17T00:58:37.159Z,964.9
2019-03-17T00:59:38.682Z,964.9
2019-03-17T01:00:39.945Z,964.8
2019-03-17T01:01:41.201Z,964.8
2019-03-17T01:02:42.449Z,964.8
2019-03-17T01:03:43.754Z,964.9
2019-03-17T01:04:56.857Z,964.8
2019-03-17T01:05:58.148Z,964.8
2019-03-17T01:06:59.453Z,964.8
2019-03-17T01:08:00.728Z,964.7
2019-03-17T01:09:04.377Z,964.7
2019-03-17T01:10:05.793Z,964.8
2019-03-17T01:11:07.090Z,964.8
2019-03-17T01:12:08.382Z,964.7
2019-03-17T01:13:09.673Z,964.7
2019-03-17T01:14:10.968Z,964.7
2019-03-17T01:15:12.216Z,964.6
2019-03-17T01:16:13.503Z,964.7
2019-03-17T01:17:14.754Z,964.7
2019-03-17T01:18:16.048Z,964.6
2019-03-17T01:19:17.345Z,964.6
2019-03-17T01:20:18.952Z,964.5
2019-03-17T01:21:20.208Z,964.6
2019-03-17T01:22:21.471Z,964.6
2019-03-17T01:23:22.723Z,964.6
2019-03-17T01:24:24.336Z,964.6
2019-03-17T01:25:25.576Z,964.5
2019-03-17T01:26:26.814Z,964.5
2019-03-17T01:27:28.266Z,964.5
2019-03-17T01:28:29.522Z,964.4
2019-03-17T01:29:30.843Z,964.4
2019-03-17T01:30:32.098Z,964.4
2019-03-17T01:31:33.348Z,964.3
2019-03-17T01:32:34.674Z,964.3
2019-03-17T01:33:35.972Z,964.3
2019-03-17T01:34:37.342Z,964.1
2019-03-17T01:35:38.590Z,964.2
2019-03-17T01:36:39.875Z,964.3
2019-03-17T01:37:42.342Z,964.3
2019-03-17T01:38:43.600Z,964.2
2019-03-17T01:39:45.229Z,964.1
2019-03-17T01:40:46.885Z,964.2
2019-03-17T01:41:48.521Z,964.1
2019-03-17T01:42:49.792Z,964.1
2019-03-17T01:43:52.106Z,964.1
2019-03-17T01:44:53.398Z,964.1
2019-03-17T01:45:54.657Z,964
2019-03-17T01:46:56.247Z,964
2019-03-17T01:47:58.584Z,964
2019-03-17T01:48:59.894Z,963.9
2019-03-17T01:50:01.170Z,964
2019-03-17T01:51:02.422Z,963.8
2019-03-17T01:52:03.680Z,963.9
2019-03-17T01:53:05.278Z,964
2019-03-17T01:54:06.556Z,963.9
2019-03-17T01:55:07.890Z,964
2019-03-17T01:56:09.402Z,963.9
2019-03-17T01:57:10.644Z,963.8
2019-03-17T01:58:11.947Z,963.8
2019-03-17T01:59:13.211Z,963.8
2019-03-17T02:00:14.532Z,963.9
2019-03-17T02:01:15.816Z,963.9
2019-03-17T02:02:17.084Z,963.9
2019-03-17T02:03:18.371Z,963.9
2019-03-17T02:04:19.622Z,963.8
2019-03-17T02:05:23.155Z,963.7
2019-03-17T02:06:24.430Z,963.7
2019-03-17T02:07:25.684Z,963.8
2019-03-17T02:08:27.974Z,963.8
2019-03-17T02:09:29.380Z,963.7
2019-03-17T02:10:31.288Z,963.8
2019-03-17T02:11:32.617Z,963.7
2019-03-17T02:12:33.872Z,963.6
2019-03-17T02:13:35.448Z,963.7
2019-03-17T02:14:36.693Z,963.8
2019-03-17T02:15:37.990Z,963.6
2019-03-17T02:16:39.254Z,963.6
2019-03-17T02:17:40.624Z,963.6
2019-03-17T02:18:41.890Z,963.6
2019-03-17T02:19:43.157Z,963.7
2019-03-17T02:20:44.444Z,963.5
2019-03-17T02:21:45.716Z,963.6
2019-03-17T02:22:46.966Z,963.6
2019-03-17T02:23:48.228Z,963.5
2019-03-17T02:24:49.955Z,963.5
2019-03-17T02:25:51.550Z,963.6
2019-03-17T02:26:52.822Z,963.5
2019-03-17T02:27:54.278Z,963.5
2019-03-17T02:28:55.531Z,963.4
2019-03-17T02:29:56.791Z,963.5
2019-03-17T02:30:58.084Z,963.4
2019-03-17T02:31:59.356Z,963.4
2019-03-17T02:33:00.991Z,963.5
2019-03-17T02:34:02.301Z,963.5
2019-03-17T02:35:04.864Z,963.4
2019-03-17T02:36:06.178Z,963.4
2019-03-17T02:37:07.486Z,963.4
2019-03-17T02:38:08.760Z,963.4
2019-03-17T02:39:10.016Z,963.3
2019-03-17T02:40:11.302Z,963.4
2019-03-17T02:41:12.876Z,963.4
2019-03-17T02:42:14.160Z,963.4
2019-03-17T02:43:15.476Z,963.4
2019-03-17T02:44:16.737Z,963.3
2019-03-17T02:45:18.370Z,963.2
2019-03-17T02:46:19.672Z,963.3
2019-03-17T02:47:21.236Z,963.4
2019-03-17T02:48:22.502Z,963.4
2019-03-17T02:49:23.885Z,963.2
2019-03-17T02:50:25.197Z,963.3
2019-03-17T02:51:26.612Z,963.3
2019-03-17T02:52:27.888Z,963.1
2019-03-17T02:53:29.170Z,963.1
2019-03-17T02:54:31.472Z,963.2
2019-03-17T02:55:32.759Z,963.1
2019-03-17T02:56:34.100Z,963.2
2019-03-17T02:57:35.727Z,963.2
2019-03-17T02:58:36.994Z,963.2
2019-03-17T02:59:38.289Z,963.1
2019-03-17T03:00:39.562Z,963.2
2019-03-17T03:01:40.874Z,963.1
2019-03-17T03:02:42.135Z,963
2019-03-17T03:03:43.674Z,963.3
2019-03-17T03:04:46.197Z,963.2
2019-03-17T03:05:55.953Z,963.2
2019-03-17T03:06:57.298Z,963.2
2019-03-17T03:07:58.569Z,963.1
2019-03-17T03:08:59.844Z,963.1
2019-03-17T03:10:02.112Z,963.1
2019-03-17T03:11:03.383Z,963.1
2019-03-17T03:12:05.029Z,963
2019-03-17T03:13:06.321Z,963.1
2019-03-17T03:14:07.585Z,963.1
2019-03-17T03:15:08.856Z,963.1
2019-03-17T03:16:10.177Z,963.1
2019-03-17T03:17:11.502Z,963
2019-03-17T03:18:12.798Z,962.9
2019-03-17T03:19:16.458Z,963
2019-03-17T03:20:17.737Z,963
2019-03-17T03:21:19.015Z,962.8
2019-03-17T03:22:20.327Z,963
2019-03-17T03:23:21.684Z,963
2019-03-17T03:24:22.933Z,962.9
2019-03-17T03:25:24.206Z,963
2019-03-17T03:26:25.477Z,962.9
2019-03-17T03:27:26.833Z,962.9
2019-03-17T03:28:28.124Z,963
2019-03-17T03:29:29.373Z,963
2019-03-17T03:30:30.697Z,963
2019-03-17T03:31:31.993Z,962.9
2019-03-17T03:32:34.512Z,962.8
2019-03-17T03:33:35.789Z,962.9
2019-03-17T03:34:37.059Z,963
2019-03-17T03:35:38.348Z,963
2019-03-17T03:36:39.595Z,962.9
2019-03-17T03:37:40.885Z,962.9
2019-03-17T03:38:42.160Z,963
2019-03-17T03:39:43.464Z,963
2019-03-17T03:40:44.726Z,963
2019-03-17T03:41:45.978Z,962.9
2019-03-17T03:42:47.630Z,962.8
2019-03-17T03:43:48.871Z,962.8
2019-03-17T03:44:50.149Z,962.9
2019-03-17T03:45:51.417Z,962.7
2019-03-17T03:46:52.680Z,962.7
2019-03-17T03:47:53.967Z,962.6
2019-03-17T03:48:55.236Z,962.6
2019-03-17T03:49:58.047Z,962.7
2019-03-17T03:50:59.291Z,962.5
2019-03-17T03:52:01.842Z,962.6
2019-03-17T03:53:03.859Z,962.5
2019-03-17T03:54:05.141Z,962.3
2019-03-17T03:55:06.433Z,962.4
2019-03-17T03:56:07.676Z,962.5
2019-03-17T03:57:09.000Z,962.4
2019-03-17T03:58:10.303Z,962.5
2019-03-17T03:59:11.579Z,962.5
2019-03-17T04:00:12.835Z,962.4
2019-03-17T04:01:16.399Z,962.4
2019-03-17T04:02:17.963Z,962.3
2019-03-17T04:03:19.262Z,962.3
2019-03-17T04:04:20.521Z,962.3
2019-03-17T04:05:21.840Z,962.3
2019-03-17T04:06:27.748Z,962.3
2019-03-17T04:07:29.027Z,962.3
2019-03-17T04:08:30.360Z,962.3
2019-03-17T04:09:31.639Z,962.3
2019-03-17T04:10:32.911Z,962.2
2019-03-17T04:11:34.534Z,962.3
2019-03-17T04:12:35.823Z,962.2
2019-03-17T04:13:37.539Z,962.3
2019-03-17T04:14:38.844Z,962.3
2019-03-17T04:15:40.121Z,962.3
2019-03-17T04:16:41.369Z,962.2
2019-03-17T04:17:42.613Z,962.1
2019-03-17T04:18:45.935Z,962.2
2019-03-17T04:19:47.205Z,962.2
2019-03-17T04:20:48.449Z,962.3
2019-03-17T04:21:49.719Z,962.1
2019-03-17T04:22:50.997Z,962.1
2019-03-17T04:23:52.594Z,962.1
2019-03-17T04:24:53.880Z,962.1
2019-03-17T04:25:55.135Z,962.2
2019-03-17T04:26:56.417Z,962.2
2019-03-17T04:27:57.741Z,962.2
2019-03-17T04:28:59.307Z,962.1
2019-03-17T04:30:00.576Z,962.2
2019-03-17T04:31:01.854Z,962.2
2019-03-17T04:32:03.126Z,962
2019-03-17T04:33:04.419Z,962.2
2019-03-17T04:34:05.730Z,962.2
2019-03-17T04:35:07.031Z,962.1
2019-03-17T04:36:08.285Z,962.2
2019-03-17T04:37:09.853Z,962.1
2019-03-17T04:38:11.119Z,962.2
2019-03-17T04:39:12.479Z,962.1
2019-03-17T04:40:13.737Z,962.3
2019-03-17T04:41:15.000Z,962.3
2019-03-17T04:42:16.261Z,962.3
2019-03-17T04:43:17.638Z,962.3
2019-03-17T04:44:21.980Z,962.3
2019-03-17T04:45:23.253Z,962.3
2019-03-17T04:46:24.516Z,962.3
2019-03-17T04:47:25.785Z,962.2
2019-03-17T04:48:27.045Z,962
2019-03-17T04:49:28.311Z,962.3
2019-03-17T04:50:29.913Z,962.3
2019-03-17T04:51:31.209Z,962.3
2019-03-17T04:52:32.455Z,962.2
2019-03-17T04:53:33.743Z,962.4
2019-03-17T04:54:35.027Z,962.2
2019-03-17T04:55:36.281Z,962.2
2019-03-17T04:56:37.535Z,962.2
2019-03-17T04:57:38.774Z,962.2
2019-03-17T04:58:40.013Z,962.2
2019-03-17T04:59:41.333Z,962.1
2019-03-17T05:00:42.569Z,962.1
2019-03-17T05:01:43.833Z,962.1
2019-03-17T05:02:45.367Z,962.2
2019-03-17T05:03:46.647Z,962.1
2019-03-17T05:04:47.953Z,962.1
2019-03-17T05:05:49.205Z,962.1
2019-03-17T05:06:53.673Z,962.1
2019-03-17T05:07:54.936Z,962
2019-03-17T05:08:56.191Z,962.1
2019-03-17T05:09:57.483Z,962
2019-03-17T05:10:58.759Z,962
2019-03-17T05:12:00.002Z,962
2019-03-17T05:13:01.267Z,962.1
2019-03-17T05:14:02.515Z,962.1
2019-03-17T05:15:03.908Z,962
2019-03-17T05:16:05.171Z,961.9
2019-03-17T05:17:06.441Z,962
2019-03-17T05:18:07.704Z,961.9
2019-03-17T05:19:08.977Z,961.9
2019-03-17T05:20:10.269Z,961.8
2019-03-17T05:21:11.550Z,961.8
2019-03-17T05:22:12.837Z,961.8
2019-03-17T05:23:16.222Z,961.8
2019-03-17T05:24:17.894Z,961.8
2019-03-17T05:25:19.200Z,961.6
2019-03-17T05:26:20.465Z,961.7
2019-03-17T05:27:22.032Z,961.7
2019-03-17T05:28:24.037Z,961.7
2019-03-17T05:29:25.329Z,961.7
2019-03-17T05:30:26.680Z,961.5
2019-03-17T05:31:30.318Z,961.7
2019-03-17T05:32:31.588Z,961.7
2019-03-17T05:33:32.838Z,961.5
2019-03-17T05:34:34.150Z,961.6
2019-03-17T05:35:35.423Z,961.6
2019-03-17T05:36:36.686Z,961.6
2019-03-17T05:37:37.952Z,961.5
2019-03-17T05:38:39.222Z,961.6
2019-03-17T05:39:40.825Z,961.5
2019-03-17T05:40:42.160Z,961.4
2019-03-17T05:41:43.408Z,961.6
2019-03-17T05:42:44.651Z,961.6
2019-03-17T05:43:45.933Z,961.5
2019-03-17T05:44:47.397Z,961.6
2019-03-17T05:45:48.700Z,961.5
2019-03-17T05:46:49.964Z,961.5
2019-03-17T05:47:51.216Z,961.5
2019-03-17T05:48:52.468Z,961.5
2019-03-17T05:49:53.714Z,961.6
2019-03-17T05:50:55.001Z,961.7
2019-03-17T05:51:56.730Z,961.7
2019-03-17T05:52:57.995Z,961.7
2019-03-17T05:53:59.442Z,961.8
2019-03-17T05:55:00.688Z,961.9
2019-03-17T05:56:01.957Z,961.8
2019-03-17T05:57:03.220Z,961.9
2019-03-17T05:58:04.497Z,961.8
2019-03-17T05:59:05.746Z,961.9
2019-03-17T06:00:07.005Z,962
2019-03-17T06:01:08.530Z,962
2019-03-17T06:02:09.786Z,962
2019-03-17T06:03:11.286Z,962
2019-03-17T06:04:12.534Z,962
2019-03-17T06:05:13.796Z,961.9
2019-03-17T06:06:15.097Z,962.1
2019-03-17T06:07:19.812Z,962.1
2019-03-17T06:08:21.144Z,962.1
2019-03-17T06:09:22.437Z,962.1
2019-03-17T06:10:23.686Z,962
2019-03-17T06:11:24.984Z,962
2019-03-17T06:12:26.264Z,962.1
2019-03-17T06:13:29.210Z,962
2019-03-17T06:14:30.796Z,962.1
2019-03-17T06:15:32.048Z,962.1
2019-03-17T06:16:33.384Z,962.1
2019-03-17T06:17:34.660Z,962
2019-03-17T06:18:35.892Z,962
2019-03-17T06:19:37.154Z,962
2019-03-17T06:20:38.416Z,961.9
2019-03-17T06:21:39.728Z,961.9
2019-03-17T06:22:41.048Z,961.8
2019-03-17T06:23:42.328Z,961.9
2019-03-17T06:24:43.584Z,961.9
2019-03-17T06:25:44.834Z,962
2019-03-17T06:26:46.130Z,961.8
2019-03-17T06:27:47.398Z,961.8
2019-03-17T06:28:48.672Z,961.8
2019-03-17T06:29:49.926Z,961.9
2019-03-17T06:30:51.262Z,962
2019-03-17T06:31:52.606Z,962
2019-03-17T06:32:54.238Z,962
2019-03-17T06:33:55.925Z,962
2019-03-17T06:34:57.216Z,962.2
2019-03-17T06:35:58.548Z,962.1
2019-03-17T06:37:00.128Z,962.1
2019-03-17T06:38:01.510Z,962.1
2019-03-17T06:39:02.796Z,962.1
2019-03-17T06:40:04.085Z,962
2019-03-17T06:41:05.598Z,962.1
2019-03-17T06:42:06.891Z,962.1
2019-03-17T06:43:08.166Z,962.1
2019-03-17T06:44:09.773Z,962.1
2019-03-17T06:45:11.037Z,962.1
2019-03-17T06:46:12.318Z,961.9
2019-03-17T06:47:14.408Z,961.8
2019-03-17T06:48:15.668Z,962
2019-03-17T06:49:16.924Z,962
2019-03-17T06:50:19.222Z,961.9
2019-03-17T06:51:20.473Z,962.1
2019-03-17T06:52:21.748Z,962
2019-03-17T06:53:23.332Z,962
2019-03-17T06:54:24.576Z,962
2019-03-17T06:55:25.850Z,962
2019-03-17T06:56:27.137Z,962
2019-03-17T06:57:28.423Z,961.9
2019-03-17T06:58:29.668Z,962
2019-03-17T06:59:30.924Z,962
2019-03-17T07:00:34.536Z,962.1
2019-03-17T07:01:35.794Z,962.2
2019-03-17T07:02:38.312Z,962.1
2019-03-17T07:03:39.560Z,962.1
2019-03-17T07:04:40.816Z,962.2
2019-03-17T07:05:42.077Z,962
2019-03-17T07:06:43.356Z,962.2
2019-03-17T07:07:45.503Z,962.2
2019-03-17T07:08:46.760Z,962.1
2019-03-17T07:09:48.014Z,962
2019-03-17T07:10:49.274Z,962.1
2019-03-17T07:11:50.552Z,962.1
2019-03-17T07:12:51.833Z,962.1
2019-03-17T07:15:08.817Z,962.1
2019-03-17T07:16:10.093Z,962.2
2019-03-17T07:17:11.380Z,962.1
2019-03-17T07:18:13.168Z,962.2
2019-03-17T07:19:14.425Z,962.1
2019-03-17T07:20:15.694Z,962.2
2019-03-17T07:21:16.957Z,962.2
2019-03-17T07:22:18.384Z,962.2
2019-03-17T07:23:19.829Z,962.2
2019-03-17T07:24:21.104Z,962.3
2019-03-17T07:25:22.423Z,962.3
2019-03-17T07:26:23.679Z,962.3
2019-03-17T07:27:24.955Z,962.2
2019-03-17T07:28:26.258Z,962.3
2019-03-17T07:29:27.519Z,962.4
2019-03-17T07:30:28.778Z,962.4
2019-03-17T07:31:30.042Z,962.5
2019-03-17T07:32:31.296Z,962.4
2019-03-17T07:33:32.785Z,962.4
2019-03-17T07:34:34.049Z,962.4
2019-03-17T07:35:35.397Z,962.5
2019-03-17T07:36:37.033Z,962.3
2019-03-17T07:37:38.353Z,962.4
2019-03-17T07:38:39.734Z,962.5
2019-03-17T07:39:43.358Z,962.5
2019-03-17T07:40:44.650Z,962.4
2019-03-17T07:41:45.965Z,962.6
2019-03-17T07:42:47.245Z,962.5
2019-03-17T07:43:48.823Z,962.5
2019-03-17T07:44:50.077Z,962.7
2019-03-17T07:45:51.343Z,962.7
2019-03-17T07:46:52.616Z,962.6
2019-03-17T07:47:53.903Z,962.9
2019-03-17T07:48:55.467Z,962.8
2019-03-17T07:49:56.721Z,962.7
2019-03-17T07:50:57.984Z,962.7
2019-03-17T07:51:59.292Z,962.9
2019-03-17T07:53:10.942Z,962.8
2019-03-17T07:54:12.483Z,963
2019-03-17T07:55:13.754Z,963
2019-03-17T07:56:15.023Z,963.1
2019-03-17T07:57:16.309Z,963.1
2019-03-17T07:58:17.567Z,963
2019-03-17T07:59:18.865Z,963.1
2019-03-17T08:00:32.747Z,963.1
2019-03-17T08:01:34.013Z,963.1
2019-03-17T08:02:35.338Z,963.1
2019-03-17T08:03:36.611Z,963.1
2019-03-17T08:04:46.007Z,963.2
2019-03-17T08:05:47.408Z,963
2019-03-17T08:06:48.657Z,963.1
2019-03-17T08:07:49.942Z,963
2019-03-17T08:08:51.308Z,963.1
2019-03-17T08:09:52.912Z,963.2
2019-03-17T08:10:54.176Z,963.3
2019-03-17T08:11:55.432Z,963.3
2019-03-17T08:12:56.749Z,963.3
2019-03-17T08:13:58.036Z,963.3
2019-03-17T08:15:00.523Z,963.3
2019-03-17T08:16:01.787Z,963.2
2019-03-17T08:17:03.053Z,963.3
2019-03-17T08:18:04.333Z,963.4
2019-03-17T08:19:06.980Z,963.4
2019-03-17T08:20:08.293Z,963.4
2019-03-17T08:21:09.595Z,963.3
2019-03-17T08:22:10.931Z,963.3
2019-03-17T08:23:16.627Z,963.3
2019-03-17T08:24:17.907Z,963.4
2019-03-17T08:25:19.220Z,963.4
2019-03-17T08:26:20.583Z,963.4
2019-03-17T08:27:21.860Z,963.4
2019-03-17T08:28:23.149Z,963.4
2019-03-17T08:29:24.415Z,963.5
2019-03-17T08:30:25.705Z,963.5
2019-03-17T08:31:26.964Z,963.7
2019-03-17T08:32:28.225Z,963.5
2019-03-17T08:33:29.500Z,963.6
2019-03-17T08:34:30.769Z,963.6
2019-03-17T08:35:32.105Z,963.5
2019-03-17T08:36:34.145Z,963.6
2019-03-17T08:37:39.868Z,963.4
2019-03-17T08:38:43.424Z,963.4
2019-03-17T08:39:44.687Z,963.4
2019-03-17T08:40:46.637Z,963.5
2019-03-17T08:41:47.911Z,963.4
2019-03-17T08:42:49.439Z,963.4
2019-03-17T08:43:59.220Z,963.3
2019-03-17T08:45:00.841Z,963.3
2019-03-17T08:46:04.211Z,963.4
2019-03-17T08:47:05.463Z,963.4
2019-03-17T08:48:10.241Z,963.3
2019-03-17T08:49:13.833Z,963.4
2019-03-17T08:50:15.329Z,963.4
2019-03-17T08:51:17.101Z,963.3
2019-03-17T08:52:18.384Z,963.3
2019-03-17T08:53:19.670Z,963.4
2019-03-17T08:54:21.259Z,963.4
2019-03-17T08:55:22.511Z,963.4
2019-03-17T08:56:26.255Z,963.4
2019-03-17T08:57:27.549Z,963.4
2019-03-17T08:58:28.828Z,963.5
2019-03-17T08:59:33.569Z,963.6
2019-03-17T09:00:34.843Z,963.7
2019-03-17T09:01:36.565Z,963.5
2019-03-17T09:02:37.829Z,963.5
2019-03-17T09:03:46.227Z,963.6
2019-03-17T09:04:47.825Z,963.7
2019-03-17T09:05:49.097Z,963.8
2019-03-17T09:06:51.664Z,963.8
2019-03-17T09:07:53.201Z,963.8
2019-03-17T09:08:55.540Z,963.8
2019-03-17T09:09:59.283Z,964
2019-03-17T09:11:01.241Z,963.9
2019-03-17T09:12:07.671Z,964.1
2019-03-17T09:13:09.271Z,964
2019-03-17T09:14:11.785Z,964
2019-03-17T09:15:13.071Z,963.8
2019-03-17T09:16:14.339Z,964
2019-03-17T09:17:15.659Z,963.9
2019-03-17T09:18:18.195Z,963.7
2019-03-17T09:19:19.617Z,963.9
2019-03-17T09:20:23.293Z,963.8
2019-03-17T09:21:35.576Z,963.9
2019-03-17T09:22:37.709Z,964
2019-03-17T09:23:42.482Z,964
2019-03-17T09:24:44.201Z,963.9
2019-03-17T09:25:46.804Z,964.1
2019-03-17T09:26:49.132Z,964
2019-03-17T09:27:50.433Z,964
2019-03-17T09:28:53.876Z,964
2019-03-17T09:29:57.319Z,964
2019-03-17T09:30:58.760Z,964.1
2019-03-17T09:32:07.121Z,964.1
2019-03-17T09:33:08.460Z,963.9
2019-03-17T09:34:09.729Z,963.9
2019-03-17T09:35:11.029Z,964
2019-03-17T09:36:12.289Z,964.1
2019-03-17T09:37:13.560Z,964
2019-03-17T09:38:16.889Z,964
2019-03-17T09:39:21.464Z,964.1
2019-03-17T09:40:22.748Z,964
2019-03-17T09:41:26.048Z,964.1
2019-03-17T09:42:27.317Z,964.1
2019-03-17T09:43:28.633Z,964.1
2019-03-17T09:44:29.902Z,964.1
2019-03-17T09:45:34.198Z,964.1
2019-03-17T09:46:35.460Z,964.1
2019-03-17T09:47:36.724Z,964
2019-03-17T09:48:38.021Z,964
2019-03-17T09:49:39.282Z,964
2019-03-17T09:50:40.540Z,963.9
2019-03-17T09:51:41.816Z,963.9
2019-03-17T09:52:43.442Z,963.9
2019-03-17T09:53:44.772Z,963.9
2019-03-17T09:54:46.058Z,963.9
2019-03-17T09:55:47.338Z,963.8
2019-03-17T09:56:53.010Z,963.9
2019-03-17T09:57:54.492Z,964
2019-03-17T09:58:58.236Z,964.1
2019-03-17T09:59:59.993Z,964.1
2019-03-17T10:01:02.480Z,964
2019-03-17T10:02:03.765Z,964.1
2019-03-17T10:03:06.369Z,964.1
2019-03-17T10:04:07.662Z,964
2019-03-17T10:05:08.953Z,964
2019-03-17T10:06:10.390Z,963.9
2019-03-17T10:07:11.656Z,964
2019-03-17T10:08:15.487Z,964
2019-03-17T10:09:20.243Z,964
2019-03-17T10:10:21.630Z,964
2019-03-17T10:11:25.103Z,963.9
2019-03-17T10:12:26.361Z,963.9
2019-03-17T10:13:27.664Z,963.8
2019-03-17T10:14:28.986Z,963.7
2019-03-17T10:15:32.596Z,963.9
2019-03-17T10:16:33.867Z,963.9
2019-03-17T10:17:35.840Z,963.8
2019-03-17T10:18:37.141Z,963.7
2019-03-17T10:19:38.499Z,963.8
2019-03-17T10:20:39.776Z,963.7
2019-03-17T10:21:41.252Z,963.8
2019-03-17T10:22:42.550Z,963.9
2019-03-17T10:23:43.834Z,963.8
2019-03-17T10:24:45.157Z,963.8
2019-03-17T10:25:46.444Z,964
2019-03-17T10:26:52.698Z,964.6
2019-03-17T10:27:55.846Z,964.7
2019-03-17T10:28:57.412Z,964.6
2019-03-17T10:30:03.309Z,964.7
2019-03-17T10:31:04.906Z,964.7
2019-03-17T10:32:06.175Z,964.7
2019-03-17T10:33:07.451Z,964.8
2019-03-17T10:34:08.738Z,964.7
2019-03-17T10:35:10.038Z,964.7
2019-03-17T10:36:11.291Z,964.7
2019-03-17T10:37:12.538Z,964.8
2019-03-17T10:38:13.802Z,964.7
2019-03-17T10:39:15.074Z,964.6
2019-03-17T10:40:16.394Z,964.7
2019-03-17T10:41:17.900Z,964.7
2019-03-17T10:42:19.458Z,964.9
2019-03-17T10:43:20.706Z,964.8
2019-03-17T10:44:29.236Z,964.8
2019-03-17T10:45:32.262Z,964.9
2019-03-17T10:46:33.634Z,964.9
2019-03-17T10:47:34.911Z,965
2019-03-17T10:48:38.608Z,964.9
2019-03-17T10:49:39.902Z,965
2019-03-17T10:50:53.320Z,965
2019-03-17T10:51:54.866Z,965
2019-03-17T10:52:56.156Z,965
2019-03-17T10:53:57.426Z,965
2019-03-17T10:54:58.696Z,965.1
2019-03-17T10:56:00.251Z,965
2019-03-17T10:57:02.617Z,965
2019-03-17T10:58:03.895Z,964.8
2019-03-17T10:59:06.464Z,964.8
2019-03-17T11:00:07.952Z,964.8
2019-03-17T11:01:09.722Z,964.8
2019-03-17T11:02:15.569Z,965
2019-03-17T11:03:16.844Z,964.9
2019-03-17T11:04:18.120Z,964.9
2019-03-17T11:05:20.614Z,964.8
2019-03-17T11:06:21.930Z,964.9
2019-03-17T11:07:23.181Z,964.9
2019-03-17T11:08:24.458Z,964.9
2019-03-17T11:09:30.192Z,965
2019-03-17T11:10:31.452Z,965
2019-03-17T11:11:32.779Z,965
2019-03-17T11:12:36.399Z,965.1
2019-03-17T11:13:40.198Z,965
2019-03-17T11:14:44.302Z,964.9
2019-03-17T11:15:45.561Z,964.9
2019-03-17T11:16:46.868Z,964.9
2019-03-17T11:17:48.189Z,964.9
2019-03-17T11:18:49.458Z,964.9
2019-03-17T11:19:52.905Z,964.9
2019-03-17T11:20:54.184Z,964.9
2019-03-17T11:21:55.483Z,964.9
2019-03-17T11:22:56.765Z,964.9
2019-03-17T11:23:58.359Z,964.9
2019-03-17T11:24:59.912Z,964.9
2019-03-17T11:26:01.425Z,964.8
2019-03-17T11:27:04.040Z,964.9
2019-03-17T11:28:05.301Z,964.7
2019-03-17T11:29:06.836Z,964.9
2019-03-17T11:30:09.362Z,965
2019-03-17T11:31:11.280Z,964.9
2019-03-17T11:32:13.924Z,965
2019-03-17T11:33:16.705Z,965
2019-03-17T11:34:19.253Z,965
2019-03-17T11:35:20.531Z,965
2019-03-17T11:36:21.979Z,965
2019-03-17T11:37:24.450Z,965
2019-03-17T11:38:25.734Z,964.9
2019-03-17T11:39:38.626Z,965
2019-03-17T11:40:39.897Z,965
2019-03-17T11:41:42.763Z,965.1
2019-03-17T11:42:44.176Z,965.1
2019-03-17T11:43:45.509Z,965.1
2019-03-17T11:44:49.126Z,965.1
2019-03-17T11:45:51.604Z,965
2019-03-17T11:46:55.315Z,965
2019-03-17T11:47:56.630Z,964.8
2019-03-17T11:48:59.149Z,964.9
2019-03-17T11:50:01.660Z,964.8
2019-03-17T11:51:02.958Z,964.9
2019-03-17T11:52:07.378Z,964.8
2019-03-17T11:53:09.149Z,964.9
2019-03-17T11:54:10.434Z,964.9
2019-03-17T11:55:11.700Z,965
2019-03-17T11:56:12.962Z,965
2019-03-17T11:57:15.468Z,965
2019-03-17T11:58:16.799Z,965
2019-03-17T11:59:18.492Z,965
2019-03-17T12:00:19.783Z,964.9
2019-03-17T12:01:21.337Z,964.9
2019-03-17T12:02:32.923Z,964.8
2019-03-17T12:03:34.252Z,964.9
2019-03-17T12:04:35.519Z,964.9
2019-03-17T12:05:36.764Z,964.9
2019-03-17T12:06:38.092Z,964.9
2019-03-17T12:07:40.224Z,964.9
2019-03-17T12:08:41.541Z,964.8
2019-03-17T12:09:51.072Z,964.8
2019-03-17T12:10:52.352Z,964.9
2019-03-17T12:11:53.630Z,964.9
2019-03-17T12:12:54.937Z,964.9
2019-03-17T12:13:56.277Z,964.9
2019-03-17T12:14:57.566Z,964.9
2019-03-17T12:16:01.283Z,965
2019-03-17T12:17:02.593Z,964.9
2019-03-17T12:18:03.893Z,965.1
2019-03-17T12:19:07.417Z,965.1
2019-03-17T12:20:12.135Z,965.1
2019-03-17T12:21:13.409Z,965.2
2019-03-17T12:22:14.689Z,965.1
2019-03-17T12:23:18.846Z,965.2
2019-03-17T12:24:20.135Z,965.3
2019-03-17T12:25:21.407Z,965.3
2019-03-17T12:26:22.689Z,965.3
2019-03-17T12:27:24.443Z,965.3
2019-03-17T12:28:25.708Z,965.4
2019-03-17T12:29:29.570Z,965.3
2019-03-17T12:30:33.559Z,965.3
2019-03-17T12:31:34.825Z,965.3
2019-03-17T12:32:36.087Z,965.3
2019-03-17T12:33:38.430Z,965.3
2019-03-17T12:34:39.733Z,965.2
2019-03-17T12:35:40.989Z,965.2
2019-03-17T12:36:42.243Z,965.2
2019-03-17T12:37:44.533Z,965.2
2019-03-17T12:38:45.783Z,965.2
2019-03-17T12:39:48.219Z,965.2
2019-03-17T12:40:51.585Z,965.2
2019-03-17T12:41:53.282Z,965.2
2019-03-17T12:42:54.534Z,965.3
2019-03-17T12:43:55.817Z,965.4
2019-03-17T12:44:57.134Z,965.4
2019-03-17T12:45:58.696Z,965.4
2019-03-17T12:46:59.989Z,965.4
2019-03-17T12:48:01.256Z,965.4
2019-03-17T12:49:02.515Z,965.3
2019-03-17T12:50:03.814Z,965.3
2019-03-17T12:51:05.233Z,965.4
2019-03-17T12:52:06.796Z,965.2
2019-03-17T12:53:08.849Z,965.5
2019-03-17T12:54:10.450Z,965.4
2019-03-17T12:55:11.754Z,965.3
2019-03-17T12:56:13.067Z,965.3
2019-03-17T12:57:14.658Z,965.3
2019-03-17T12:58:15.929Z,965.2
2019-03-17T12:59:17.418Z,965.3
2019-03-17T13:00:18.813Z,965.2
2019-03-17T13:01:20.607Z,965.3
2019-03-17T13:02:21.881Z,965.3
2019-03-17T13:03:23.161Z,965.3
2019-03-17T13:04:24.433Z,965.4
2019-03-17T13:05:28.265Z,965.5
2019-03-17T13:06:29.555Z,965.4
2019-03-17T13:07:31.051Z,965.5
2019-03-17T13:08:32.463Z,965.5
2019-03-17T13:09:33.741Z,965.6
2019-03-17T13:10:35.408Z,965.7
2019-03-17T13:11:36.703Z,965.8
2019-03-17T13:12:38.205Z,965.8
2019-03-17T13:13:39.623Z,965.8
2019-03-17T13:14:42.095Z,965.9
2019-03-17T13:15:43.621Z,965.9
2019-03-17T13:16:45.882Z,965.9
2019-03-17T13:17:48.663Z,966
2019-03-17T13:18:49.960Z,965.9
2019-03-17T13:19:52.249Z,965.9
2019-03-17T13:20:53.527Z,966
2019-03-17T13:21:57.188Z,966.1
2019-03-17T13:23:01.495Z,966
2019-03-17T13:24:02.795Z,966.2
2019-03-17T13:25:06.206Z,966.3
2019-03-17T13:26:11.017Z,966.3
2019-03-17T13:27:12.911Z,966.3